Time;durP1;ratioP1;P1;durP2;ratioP2;P2;SDS_P1;SDS_P2;PMS_P1;PMS_P2;Temp;Humidity;BMP_temperature;BMP_pressure;BME280_temperature;BME280_humidity;BME280_pressure;Samples;Min_cycle;Max_cycle;Signal;HPM_P1;HPM_P2
2023/04/25 00:00:26;;;;;;;13.48;7.05;;;;;;;;;;6263699;28;20060;-58
2023/04/25 00:03:47;;;;;;;12.52;6.78;;;;;;;;;;6266237;28;20091;-56
2023/04/25 00:06:48;;;;;;;14.93;7.85;;;;;;;;;;6266322;28;20647;-52
2023/04/25 00:09:48;;;;;;;12.98;7.30;;;;;;;;;;6264603;28;20037;-58
2023/04/25 00:12:49;;;;;;;13.15;7.70;;;;;;;;;;6266377;28;20053;-54
2023/04/25 00:15:50;;;;;;;14.88;7.65;;;;;;;;;;6268913;28;20068;-50
2023/04/25 00:18:53;;;;;;;13.23;7.75;;;;;;;;;;6267770;28;20056;-54
2023/04/25 00:21:55;;;;;;;13.40;7.82;;;;;;;;;;6267334;28;20048;-50
2023/04/25 00:24:57;;;;;;;15.77;8.65;;;;;;;;;;6266602;28;20041;-51
2023/04/25 00:27:57;;;;;;;17.15;8.63;;;;;;;;;;6265999;28;20037;-57
2023/04/25 00:30:58;;;;;;;15.52;8.30;;;;;;;;;;6267111;28;20056;-56
2023/04/25 00:33:59;;;;;;;16.40;8.70;;;;;;;;;;6266503;28;20047;-54
2023/04/25 00:37:01;;;;;;;13.15;7.93;;;;;;;;;;6265372;28;20124;-54
2023/04/25 00:40:06;;;;;;;13.20;7.22;;;;;;;;;;6267556;28;20045;-55
2023/04/25 00:43:06;;;;;;;13.90;7.60;;;;;;;;;;6265617;28;20037;-55
2023/04/25 00:46:07;;;;;;;15.05;7.88;;;;;;;;;;6264933;28;20083;-53
2023/04/25 00:49:08;;;;;;;15.15;8.60;;;;;;;;;;6267973;28;20048;-55
2023/04/25 00:52:09;;;;;;;16.27;9.10;;;;;;;;;;6271315;28;20129;-54
2023/04/25 00:55:12;;;;;;;16.20;9.30;;;;;;;;;;6272602;28;20447;-54
2023/04/25 00:58:13;;;;;;;17.17;9.48;;;;;;;;;;6268092;28;20495;-50
2023/04/25 01:01:13;;;;;;;20.70;10.85;;;;;;;;;;6270860;28;20049;-52
2023/04/25 01:04:14;;;;;;;17.67;10.20;;;;;;;;;;6272460;28;20488;-53
2023/04/25 01:07:16;;;;;;;22.00;11.30;;;;;;;;;;6270183;28;20052;-55
2023/04/25 01:10:16;;;;;;;21.83;11.55;;;;;;;;;;6269030;28;20098;-53
2023/04/25 01:13:17;;;;;;;20.38;10.98;;;;;;;;;;6270647;28;20439;-51
2023/04/25 01:16:18;;;;;;;20.67;10.68;;;;;;;;;;6271326;28;20407;-53
2023/04/25 01:19:19;;;;;;;18.08;10.13;;;;;;;;;;6270295;28;20407;-55
2023/04/25 01:22:20;;;;;;;19.70;10.70;;;;;;;;;;6272368;28;20033;-54
2023/04/25 01:25:22;;;;;;;21.80;11.27;;;;;;;;;;6272411;28;20045;-55
2023/04/25 01:28:23;;;;;;;18.25;9.70;;;;;;;;;;6269457;28;20037;-55
2023/04/25 01:31:24;;;;;;;16.40;9.77;;;;;;;;;;6270918;28;20382;-58
2023/04/25 01:34:25;;;;;;;17.05;9.43;;;;;;;;;;6268975;28;20045;-52
2023/04/25 01:37:25;;;;;;;19.25;9.90;;;;;;;;;;6268759;28;20086;-54
2023/04/25 01:40:27;;;;;;;18.90;10.68;;;;;;;;;;6270552;28;20052;-53
2023/04/25 01:43:28;;;;;;;17.98;9.82;;;;;;;;;;6272454;28;20060;-54
2023/04/25 01:46:30;;;;;;;19.83;10.35;;;;;;;;;;6269801;28;20060;-53
2023/04/25 01:49:31;;;;;;;18.42;10.82;;;;;;;;;;6270064;28;20072;-52
2023/04/25 01:52:31;;;;;;;16.90;10.45;;;;;;;;;;6269805;28;20101;-58
2023/04/25 01:55:32;;;;;;;16.63;9.95;;;;;;;;;;6270079;28;20106;-54
2023/04/25 01:58:33;;;;;;;18.52;9.88;;;;;;;;;;6267331;28;20071;-53
2023/04/25 02:01:33;;;;;;;17.25;9.80;;;;;;;;;;6267891;28;20491;-50
2023/04/25 02:04:34;;;;;;;17.08;9.50;;;;;;;;;;6277795;28;20049;-59
2023/04/25 02:07:35;;;;;;;16.20;9.30;;;;;;;;;;6267409;28;20522;-55
2023/04/25 02:10:36;;;;;;;15.80;9.02;;;;;;;;;;6270011;28;20616;-53
2023/04/25 02:13:36;;;;;;;16.63;8.85;;;;;;;;;;6269299;28;20051;-56
2023/04/25 02:16:38;;;;;;;12.48;7.93;;;;;;;;;;6276046;28;20068;-54
2023/04/25 02:19:39;;;;;;;16.48;8.45;;;;;;;;;;6267514;28;20045;-59
2023/04/25 02:22:40;;;;;;;16.10;8.52;;;;;;;;;;6269088;28;20049;-55
2023/04/25 02:25:40;;;;;;;15.68;7.95;;;;;;;;;;6269675;28;20561;-53
2023/04/25 02:28:41;;;;;;;16.33;8.30;;;;;;;;;;6265809;28;20049;-55
2023/04/25 02:31:42;;;;;;;12.75;7.70;;;;;;;;;;6267646;28;20079;-52
2023/04/25 02:34:43;;;;;;;15.53;9.43;;;;;;;;;;6289505;28;20044;-54
2023/04/25 02:37:43;;;;;;;15.80;8.30;;;;;;;;;;6272033;28;20045;-58
2023/04/25 02:40:44;;;;;;;13.63;8.18;;;;;;;;;;6269745;28;20472;-55
2023/04/25 02:43:44;;;;;;;12.77;8.07;;;;;;;;;;6270197;28;20040;-54
2023/04/25 02:46:45;;;;;;;13.30;7.40;;;;;;;;;;6270055;28;20517;-56
2023/04/25 02:49:46;;;;;;;13.95;7.38;;;;;;;;;;6269779;28;20040;-55
2023/04/25 02:52:47;;;;;;;10.93;7.43;;;;;;;;;;6267658;28;20079;-53
2023/04/25 02:55:47;;;;;;;14.63;6.85;;;;;;;;;;6267614;28;20071;-51
2023/04/25 02:58:48;;;;;;;12.68;7.47;;;;;;;;;;6267780;28;20098;-54
2023/04/25 03:01:48;;;;;;;12.15;7.18;;;;;;;;;;6272763;28;20406;-51
2023/04/25 03:04:49;;;;;;;12.50;7.78;;;;;;;;;;6273143;28;20403;-54
2023/04/25 03:07:49;;;;;;;16.73;7.13;;;;;;;;;;6287434;28;20523;-52
2023/04/25 03:10:51;;;;;;;11.05;6.47;;;;;;;;;;6272351;28;20102;-54
2023/04/25 03:13:52;;;;;;;9.98;6.75;;;;;;;;;;6268292;28;20506;-57
2023/04/25 03:16:53;;;;;;;11.27;6.85;;;;;;;;;;6267513;28;20589;-58
2023/04/25 03:19:53;;;;;;;11.02;6.28;;;;;;;;;;6266895;28;20048;-58
2023/04/25 03:22:54;;;;;;;10.80;6.88;;;;;;;;;;6268618;28;20321;-55
2023/04/25 03:25:55;;;;;;;12.35;7.05;;;;;;;;;;6269049;28;20420;-59
2023/04/25 03:28:55;;;;;;;11.15;6.90;;;;;;;;;;6269388;28;20040;-54
2023/04/25 03:31:56;;;;;;;12.27;6.70;;;;;;;;;;6266796;28;20393;-58
2023/04/25 03:34:57;;;;;;;12.75;6.90;;;;;;;;;;6268969;28;20075;-56
2023/04/25 03:37:57;;;;;;;10.30;6.38;;;;;;;;;;6274839;28;20055;-54
2023/04/25 03:40:58;;;;;;;12.63;7.18;;;;;;;;;;6268527;28;20048;-51
2023/04/25 03:43:59;;;;;;;9.68;6.45;;;;;;;;;;6269220;28;20071;-53
2023/04/25 03:46:59;;;;;;;11.30;6.82;;;;;;;;;;6263595;28;20500;-54
2023/04/25 03:50:01;;;;;;;12.25;6.97;;;;;;;;;;6276753;28;20032;-54
2023/04/25 03:53:02;;;;;;;11.80;6.63;;;;;;;;;;6267756;28;20048;-56
2023/04/25 03:56:03;;;;;;;12.05;6.50;;;;;;;;;;6267807;28;20434;-55
2023/04/25 03:59:04;;;;;;;11.00;6.25;;;;;;;;;;6266676;28;20491;-53
2023/04/25 04:02:04;;;;;;;9.98;6.22;;;;;;;;;;6262681;28;20717;-52
2023/04/25 04:05:05;;;;;;;11.27;6.60;;;;;;;;;;6270328;28;20835;-56
2023/04/25 04:08:07;;;;;;;12.00;6.95;;;;;;;;;;6275391;28;20055;-54
2023/04/25 04:11:07;;;;;;;13.30;6.97;;;;;;;;;;6270890;28;20037;-53
2023/04/25 04:14:09;;;;;;;11.68;7.20;;;;;;;;;;6267690;28;20041;-55
2023/04/25 04:17:10;;;;;;;11.18;7.15;;;;;;;;;;6268376;28;20519;-52
2023/04/25 04:20:11;;;;;;;9.88;6.30;;;;;;;;;;6266707;28;20099;-55
2023/04/25 04:23:11;;;;;;;10.57;6.30;;;;;;;;;;6270723;28;20139;-52
2023/04/25 04:26:12;;;;;;;11.43;6.35;;;;;;;;;;6271994;28;20048;-51
2023/04/25 04:29:20;;;;;;;9.68;5.90;;;;;;;;;;6272924;28;20040;-54
2023/04/25 04:32:20;;;;;;;9.85;5.72;;;;;;;;;;6271687;28;20045;-54
2023/04/25 04:35:22;;;;;;;8.35;5.20;;;;;;;;;;6271199;28;20052;-59
2023/04/25 04:38:22;;;;;;;9.77;5.17;;;;;;;;;;6271250;28;20415;-55
2023/04/25 04:41:23;;;;;;;9.30;5.45;;;;;;;;;;6271070;28;20041;-56
2023/04/25 04:44:24;;;;;;;8.65;5.07;;;;;;;;;;6271956;28;20059;-55
2023/04/25 04:47:25;;;;;;;8.17;5.00;;;;;;;;;;6269035;28;20075;-54
2023/04/25 04:50:27;;;;;;;6.78;4.72;;;;;;;;;;6270754;28;20045;-51
2023/04/25 04:53:27;;;;;;;8.45;5.00;;;;;;;;;;6270983;28;20052;-52
2023/04/25 04:56:30;;;;;;;9.27;5.03;;;;;;;;;;6276770;28;20507;-60
2023/04/25 04:59:31;;;;;;;9.68;4.82;;;;;;;;;;6273193;28;20052;-55
2023/04/25 05:02:31;;;;;;;6.68;4.45;;;;;;;;;;6271645;28;20055;-53
2023/04/25 05:05:32;;;;;;;9.15;4.82;;;;;;;;;;6269027;28;20080;-55
2023/04/25 05:08:33;;;;;;;8.30;4.63;;;;;;;;;;6269806;28;20419;-56
2023/04/25 05:11:33;;;;;;;7.57;4.90;;;;;;;;;;6269303;28;20674;-55
2023/04/25 05:14:34;;;;;;;8.82;5.00;;;;;;;;;;6271342;28;20044;-54
2023/04/25 05:17:35;;;;;;;8.60;4.95;;;;;;;;;;6268885;28;20786;-55
2023/04/25 05:20:36;;;;;;;9.02;5.00;;;;;;;;;;6268155;28;20041;-55
2023/04/25 05:23:37;;;;;;;10.60;5.53;;;;;;;;;;6270107;28;20048;-53
2023/04/25 05:26:37;;;;;;;10.25;5.82;;;;;;;;;;6270232;28;20039;-51
2023/04/25 05:29:38;;;;;;;9.50;5.35;;;;;;;;;;6267897;28;20415;-54
2023/04/25 05:32:38;;;;;;;9.43;5.30;;;;;;;;;;6268355;28;20159;-54
2023/04/25 05:35:39;;;;;;;9.75;5.53;;;;;;;;;;6270147;28;20139;-59
2023/04/25 05:38:40;;;;;;;8.85;5.85;;;;;;;;;;6271697;28;20045;-56
2023/04/25 05:41:41;;;;;;;7.97;5.57;;;;;;;;;;6270836;28;20052;-53
2023/04/25 05:44:41;;;;;;;9.05;5.65;;;;;;;;;;6269370;28;20037;-56
2023/04/25 05:47:42;;;;;;;10.82;5.53;;;;;;;;;;6268977;28;20153;-54
2023/04/25 05:50:43;;;;;;;10.13;5.60;;;;;;;;;;6269683;28;20515;-53
2023/04/25 05:53:43;;;;;;;10.13;5.43;;;;;;;;;;6269537;28;20037;-54
2023/04/25 05:56:44;;;;;;;8.90;5.20;;;;;;;;;;6268588;28;20063;-51
2023/04/25 05:59:44;;;;;;;8.98;5.57;;;;;;;;;;6268892;28;20092;-55
2023/04/25 06:02:45;;;;;;;8.10;5.45;;;;;;;;;;6266952;28;20048;-54
2023/04/25 06:05:46;;;;;;;11.27;4.95;;;;;;;;;;6268316;28;20053;-55
2023/04/25 06:08:46;;;;;;;8.80;5.20;;;;;;;;;;6267808;28;20691;-54
2023/04/25 06:11:47;;;;;;;9.27;4.90;;;;;;;;;;6267691;28;20067;-56
2023/04/25 06:14:48;;;;;;;8.32;4.90;;;;;;;;;;6267827;28;20047;-50
2023/04/25 06:17:49;;;;;;;9.50;4.93;;;;;;;;;;6265260;28;20053;-53
2023/04/25 06:20:49;;;;;;;10.43;5.13;;;;;;;;;;6268009;28;20040;-53
2023/04/25 06:23:50;;;;;;;9.15;6.00;;;;;;;;;;6268307;28;20045;-56
2023/04/25 06:26:50;;;;;;;9.25;5.18;;;;;;;;;;6267029;28;20545;-55
2023/04/25 06:29:51;;;;;;;13.07;5.90;;;;;;;;;;6265797;28;20041;-54
2023/04/25 06:32:52;;;;;;;12.45;6.35;;;;;;;;;;6267249;28;20045;-59
2023/04/25 06:35:53;;;;;;;12.75;6.18;;;;;;;;;;6266456;28;20159;-57
2023/04/25 06:38:54;;;;;;;13.80;6.63;;;;;;;;;;6272812;28;20048;-54
2023/04/25 06:41:55;;;;;;;10.60;6.03;;;;;;;;;;6266106;28;20051;-55
2023/04/25 06:44:55;;;;;;;11.20;5.60;;;;;;;;;;6276119;28;21576;-57
2023/04/25 06:47:56;;;;;;;9.32;5.50;;;;;;;;;;6275595;28;20043;-59
2023/04/25 06:50:56;;;;;;;10.95;5.93;;;;;;;;;;6281569;28;20044;-55
2023/04/25 06:53:57;;;;;;;11.70;6.03;;;;;;;;;;6272274;28;20036;-57
2023/04/25 06:56:58;;;;;;;13.02;6.38;;;;;;;;;;6266922;28;20051;-57
2023/04/25 06:59:58;;;;;;;11.50;5.97;;;;;;;;;;6265955;28;20040;-55
2023/04/25 07:02:59;;;;;;;13.07;6.70;;;;;;;;;;6268967;28;20048;-56
2023/04/25 07:06:00;;;;;;;10.00;5.85;;;;;;;;;;6267149;28;20068;-55
2023/04/25 07:09:00;;;;;;;10.15;5.72;;;;;;;;;;6266036;28;20040;-55
2023/04/25 07:12:01;;;;;;;10.15;5.03;;;;;;;;;;6268200;28;20117;-59
2023/04/25 07:15:05;;;;;;;10.90;6.60;;;;;;;;;;6266978;28;20476;-56
2023/04/25 07:18:06;;;;;;;10.63;5.53;;;;;;;;;;6264670;28;20052;-57
2023/04/25 07:21:07;;;;;;;10.15;5.47;;;;;;;;;;6264816;28;20048;-55
2023/04/25 07:24:07;;;;;;;11.10;5.55;;;;;;;;;;6264747;28;20344;-56
2023/04/25 07:27:08;;;;;;;10.70;5.22;;;;;;;;;;6261878;28;20040;-53
2023/04/25 07:30:09;;;;;;;9.57;5.88;;;;;;;;;;6263304;28;20097;-54
2023/04/25 07:33:09;;;;;;;9.13;5.45;;;;;;;;;;6263938;28;20044;-54
2023/04/25 07:36:10;;;;;;;10.88;5.72;;;;;;;;;;6263455;28;20063;-54
2023/04/25 07:39:11;;;;;;;10.52;5.45;;;;;;;;;;6261673;28;20628;-55
2023/04/25 07:42:12;;;;;;;9.93;5.82;;;;;;;;;;6262523;28;20040;-57
2023/04/25 07:45:13;;;;;;;12.07;5.90;;;;;;;;;;6264437;28;20426;-56
2023/04/25 07:48:20;;;;;;;11.25;5.93;;;;;;;;;;6264040;28;20045;-55
2023/04/25 07:51:22;;;;;;;11.38;6.35;;;;;;;;;;6264085;28;20041;-54
2023/04/25 07:54:22;;;;;;;12.32;5.63;;;;;;;;;;6266802;28;20045;-58
2023/04/25 07:57:24;;;;;;;12.52;6.07;;;;;;;;;;6268296;28;20049;-60
2023/04/25 08:00:24;;;;;;;12.03;5.93;;;;;;;;;;6267309;28;20055;-55
2023/04/25 08:03:25;;;;;;;9.85;5.63;;;;;;;;;;6275425;28;20461;-57
2023/04/25 08:06:25;;;;;;;12.93;6.18;;;;;;;;;;6272515;28;20056;-55
2023/04/25 08:09:26;;;;;;;11.45;6.30;;;;;;;;;;6268363;28;20052;-58
2023/04/25 08:12:27;;;;;;;10.73;6.10;;;;;;;;;;6270548;28;20118;-54
2023/04/25 08:15:27;;;;;;;10.52;6.03;;;;;;;;;;6268904;28;20056;-57
2023/04/25 08:18:28;;;;;;;9.77;6.30;;;;;;;;;;6266688;28;20483;-50
2023/04/25 08:21:29;;;;;;;9.32;5.65;;;;;;;;;;6271833;28;20087;-53
2023/04/25 08:24:29;;;;;;;12.85;6.30;;;;;;;;;;6270838;28;20131;-56
2023/04/25 08:27:30;;;;;;;12.52;7.18;;;;;;;;;;6269210;28;20201;-60
2023/04/25 08:30:30;;;;;;;11.10;6.53;;;;;;;;;;6270422;28;20539;-54
2023/04/25 08:33:32;;;;;;;9.95;6.43;;;;;;;;;;6273312;28;20037;-57
2023/04/25 08:36:33;;;;;;;9.07;6.63;;;;;;;;;;6270025;28;20068;-61
2023/04/25 08:39:33;;;;;;;12.38;6.63;;;;;;;;;;6270853;28;20037;-55
2023/04/25 08:42:36;;;;;;;13.25;6.85;;;;;;;;;;6271403;28;20699;-55
2023/04/25 08:45:41;;;;;;;10.95;6.22;;;;;;;;;;6270457;28;20064;-54
2023/04/25 08:48:44;;;;;;;10.73;6.57;;;;;;;;;;6267012;28;20846;-56
2023/04/25 08:51:50;;;;;;;8.55;5.72;;;;;;;;;;6267790;28;20471;-59
2023/04/25 08:54:51;;;;;;;10.00;5.68;;;;;;;;;;6272311;28;20921;-55
2023/04/25 08:57:54;;;;;;;8.70;5.15;;;;;;;;;;6270009;28;20060;-56
2023/04/25 09:00:55;;;;;;;8.27;5.38;;;;;;;;;;6271069;28;20045;-54
2023/04/25 09:03:57;;;;;;;10.32;5.53;;;;;;;;;;6271070;28;20045;-57
2023/04/25 09:06:58;;;;;;;9.98;5.70;;;;;;;;;;6280310;28;20097;-56
2023/04/25 09:10:01;;;;;;;9.57;5.85;;;;;;;;;;6265901;28;20041;-58
2023/04/25 09:13:06;;;;;;;8.65;5.45;;;;;;;;;;6270462;28;20041;-56
2023/04/25 09:16:07;;;;;;;9.25;4.70;;;;;;;;;;6269121;28;20408;-56
2023/04/25 09:19:20;;;;;;;8.75;4.93;;;;;;;;;;6268814;28;20036;-57
2023/04/25 09:22:22;;;;;;;9.70;5.20;;;;;;;;;;6270364;28;20045;-60
2023/04/25 09:25:24;;;;;;;9.65;4.97;;;;;;;;;;6270792;28;20915;-60
2023/04/25 09:28:27;;;;;;;7.95;4.53;;;;;;;;;;6271258;28;20037;-59
2023/04/25 09:31:27;;;;;;;8.10;5.00;;;;;;;;;;6268431;28;20037;-59
2023/04/25 09:34:28;;;;;;;10.55;5.57;;;;;;;;;;6273707;28;20043;-55
2023/04/25 09:37:30;;;;;;;9.20;5.30;;;;;;;;;;6271266;28;20106;-56
2023/04/25 09:40:30;;;;;;;7.20;4.80;;;;;;;;;;6267594;28;20512;-55
2023/04/25 09:43:31;;;;;;;6.47;4.32;;;;;;;;;;6275867;28;20098;-53
2023/04/25 09:46:36;;;;;;;8.75;5.35;;;;;;;;;;6268048;28;20088;-56
2023/04/25 09:49:42;;;;;;;11.00;6.05;;;;;;;;;;6268052;28;20056;-62
2023/04/25 09:52:43;;;;;;;9.57;5.80;;;;;;;;;;6267713;28;20040;-56
2023/04/25 09:55:45;;;;;;;12.25;5.97;;;;;;;;;;6267413;28;20645;-61
2023/04/25 09:58:47;;;;;;;9.73;6.10;;;;;;;;;;6272184;28;20131;-54
2023/04/25 10:01:49;;;;;;;9.43;5.10;;;;;;;;;;6267687;28;20076;-55
2023/04/25 10:04:54;;;;;;;10.30;6.25;;;;;;;;;;6271911;28;20449;-58
2023/04/25 10:07:55;;;;;;;8.20;5.32;;;;;;;;;;6267604;28;20051;-52
2023/04/25 10:10:59;;;;;;;8.10;5.47;;;;;;;;;;6264787;28;20437;-54
2023/04/25 10:14:00;;;;;;;9.45;5.40;;;;;;;;;;6267472;28;20044;-55
2023/04/25 10:17:01;;;;;;;7.78;5.00;;;;;;;;;;6268588;28;20412;-56
2023/04/25 10:20:08;;;;;;;6.57;4.53;;;;;;;;;;6277738;28;20040;-56
2023/04/25 10:23:13;;;;;;;6.38;4.28;;;;;;;;;;6266259;28;20056;-56
2023/04/25 10:26:14;;;;;;;6.45;4.32;;;;;;;;;;6267273;28;20044;-56
2023/04/25 10:29:23;;;;;;;7.80;4.70;;;;;;;;;;6267608;28;20052;-54
2023/04/25 10:32:24;;;;;;;8.50;4.18;;;;;;;;;;6266749;28;20164;-60
2023/04/25 10:35:27;;;;;;;8.30;3.90;;;;;;;;;;6267182;28;20067;-54
2023/04/25 10:38:27;;;;;;;10.20;4.88;;;;;;;;;;6267164;28;20380;-58
2023/04/25 10:41:29;;;;;;;5.88;3.78;;;;;;;;;;6266634;28;20044;-57
2023/04/25 10:44:31;;;;;;;7.07;3.92;;;;;;;;;;6268370;28;20045;-56
2023/04/25 10:47:36;;;;;;;6.88;4.28;;;;;;;;;;6268856;28;20131;-56
2023/04/25 10:50:38;;;;;;;7.47;3.65;;;;;;;;;;6266494;28;20041;-56
2023/04/25 10:53:39;;;;;;;7.13;3.58;;;;;;;;;;6266081;28;20493;-54
2023/04/25 10:56:44;;;;;;;10.18;4.50;;;;;;;;;;6268310;28;20059;-65
2023/04/25 10:59:44;;;;;;;6.63;3.83;;;;;;;;;;6266653;28;20049;-57
2023/04/25 11:02:47;;;;;;;5.78;3.53;;;;;;;;;;6267653;28;20044;-55
2023/04/25 11:05:49;;;;;;;6.20;3.50;;;;;;;;;;6289574;28;20041;-54
2023/04/25 11:08:50;;;;;;;8.88;3.88;;;;;;;;;;6290632;28;20058;-55
2023/04/25 11:11:55;;;;;;;7.95;3.90;;;;;;;;;;6286740;28;20041;-59
2023/04/25 11:15:07;;;;;;;6.32;3.78;;;;;;;;;;6265225;28;20136;-55
2023/04/25 11:18:07;;;;;;;6.50;3.80;;;;;;;;;;6265186;28;20487;-55
2023/04/25 11:21:08;;;;;;;6.38;3.58;;;;;;;;;;6268420;28;20051;-55
2023/04/25 11:24:09;;;;;;;8.37;4.30;;;;;;;;;;6266882;28;20037;-56
2023/04/25 11:27:10;;;;;;;7.55;4.00;;;;;;;;;;6264571;28;20079;-53
2023/04/25 11:30:12;;;;;;;6.13;3.60;;;;;;;;;;6268105;28;20059;-56
2023/04/25 11:33:13;;;;;;;8.30;4.07;;;;;;;;;;6265825;28;20053;-56
2023/04/25 11:36:14;;;;;;;5.32;3.88;;;;;;;;;;6277046;28;20040;-55
2023/04/25 11:39:15;;;;;;;7.15;3.90;;;;;;;;;;6266841;28;20036;-53
2023/04/25 11:42:16;;;;;;;6.70;3.65;;;;;;;;;;6266507;28;20538;-56
2023/04/25 11:45:16;;;;;;;6.25;3.58;;;;;;;;;;6263329;28;20060;-54
2023/04/25 11:48:18;;;;;;;5.50;3.17;;;;;;;;;;6266259;28;20442;-56
2023/04/25 11:51:18;;;;;;;4.63;2.75;;;;;;;;;;6263896;28;20488;-55
2023/04/25 11:54:19;;;;;;;5.45;2.92;;;;;;;;;;6264156;28;20043;-60
2023/04/25 11:57:20;;;;;;;5.20;2.83;;;;;;;;;;6265370;28;20048;-51
2023/04/25 12:00:22;;;;;;;5.72;3.10;;;;;;;;;;6265072;28;20476;-58
2023/04/25 12:03:26;;;;;;;6.22;3.63;;;;;;;;;;6262380;28;20472;-58
2023/04/25 12:06:28;;;;;;;5.97;3.30;;;;;;;;;;6268704;28;20061;-57
2023/04/25 12:09:32;;;;;;;;;;;;;;;;;;6267100;28;20043;-56
2023/04/25 12:12:34;;;;;;;7.00;3.60;;;;;;;;;;6265259;28;19928;-56
2023/04/25 12:15:35;;;;;;;9.05;4.18;;;;;;;;;;6266124;28;20135;-59
2023/04/25 12:18:36;;;;;;;5.80;2.78;;;;;;;;;;6267031;28;20515;-56
2023/04/25 12:21:36;;;;;;;7.65;3.40;;;;;;;;;;6265101;28;20052;-54
2023/04/25 12:24:37;;;;;;;10.07;4.03;;;;;;;;;;6262372;28;20037;-58
2023/04/25 12:27:37;;;;;;;7.03;3.72;;;;;;;;;;6270128;28;20044;-60
2023/04/25 12:30:59;;;;;;;8.70;3.40;;;;;;;;;;6266241;28;20500;-58
2023/04/25 12:33:59;;;;;;;8.30;3.35;;;;;;;;;;6267311;28;20057;-54
2023/04/25 12:37:00;;;;;;;7.15;3.97;;;;;;;;;;6264177;28;20133;-54
2023/04/25 12:40:01;;;;;;;6.32;3.90;;;;;;;;;;6265435;28;20044;-54
2023/04/25 12:43:01;;;;;;;6.95;4.38;;;;;;;;;;6267808;28;20101;-52
2023/04/25 12:46:02;;;;;;;6.03;4.18;;;;;;;;;;6270995;28;20075;-54
2023/04/25 12:49:04;;;;;;;6.60;4.10;;;;;;;;;;6272153;28;20048;-56
2023/04/25 12:52:05;;;;;;;7.40;4.70;;;;;;;;;;6272515;28;20053;-53
2023/04/25 12:55:06;;;;;;;9.68;4.97;;;;;;;;;;6269634;28;20397;-57
2023/04/25 12:58:07;;;;;;;7.65;4.32;;;;;;;;;;6272390;28;20056;-55
2023/04/25 13:01:08;;;;;;;7.63;4.60;;;;;;;;;;6271901;28;20097;-51
2023/04/25 13:04:08;;;;;;;7.38;4.32;;;;;;;;;;6269054;28;20617;-58
2023/04/25 13:07:09;;;;;;;9.25;4.50;;;;;;;;;;6269661;28;20407;-56
2023/04/25 13:10:10;;;;;;;9.00;4.88;;;;;;;;;;6271616;28;20083;-56
2023/04/25 13:13:11;;;;;;;8.87;4.40;;;;;;;;;;6271515;28;20062;-55
2023/04/25 13:16:13;;;;;;;6.85;4.30;;;;;;;;;;6268031;28;20294;-53
2023/04/25 13:19:14;;;;;;;6.10;4.15;;;;;;;;;;6270044;28;20071;-57
2023/04/25 13:22:16;;;;;;;9.63;4.47;;;;;;;;;;6274646;28;20041;-59
2023/04/25 13:25:17;;;;;;;8.38;4.30;;;;;;;;;;6272386;28;20062;-52
2023/04/25 13:28:17;;;;;;;6.55;4.32;;;;;;;;;;6271787;28;20056;-53
2023/04/25 13:31:18;;;;;;;6.93;4.65;;;;;;;;;;6270363;28;20037;-54
2023/04/25 13:34:18;;;;;;;8.45;5.05;;;;;;;;;;6268708;28;20064;-55
2023/04/25 13:37:19;;;;;;;8.82;4.80;;;;;;;;;;6274385;28;20052;-56
2023/04/25 13:40:20;;;;;;;11.00;4.80;;;;;;;;;;6272630;28;20083;-53
2023/04/25 13:43:21;;;;;;;8.40;5.00;;;;;;;;;;6273444;28;20053;-56
2023/04/25 13:46:22;;;;;;;6.78;4.00;;;;;;;;;;6266637;28;20055;-56
2023/04/25 13:49:22;;;;;;;11.13;4.93;;;;;;;;;;6268761;28;20071;-56
2023/04/25 13:52:27;;;;;;;8.30;4.45;;;;;;;;;;6265380;28;20040;-56
2023/04/25 13:55:28;;;;;;;9.70;4.80;;;;;;;;;;6265488;28;20048;-56
2023/04/25 13:58:28;;;;;;;9.95;4.57;;;;;;;;;;6269531;28;20071;-56
2023/04/25 14:01:30;;;;;;;7.53;4.93;;;;;;;;;;6269281;28;20139;-55
2023/04/25 14:04:32;;;;;;;6.85;4.30;;;;;;;;;;6266862;28;20049;-61
2023/04/25 14:07:34;;;;;;;8.80;4.67;;;;;;;;;;6272829;28;20049;-59
2023/04/25 14:10:35;;;;;;;8.57;4.43;;;;;;;;;;6268899;28;20040;-56
2023/04/25 14:13:36;;;;;;;8.23;5.03;;;;;;;;;;6268896;28;20048;-56
2023/04/25 14:16:36;;;;;;;8.52;5.38;;;;;;;;;;6267595;28;20041;-56
2023/04/25 14:19:38;;;;;;;8.73;4.53;;;;;;;;;;6267875;28;20044;-56
2023/04/25 14:22:42;;;;;;;9.15;5.03;;;;;;;;;;6265325;28;20052;-55
2023/04/25 14:25:44;;;;;;;8.55;4.70;;;;;;;;;;6263269;28;20037;-57
2023/04/25 14:28:45;;;;;;;7.30;4.30;;;;;;;;;;6265506;28;20047;-59
2023/04/25 14:31:46;;;;;;;12.20;6.03;;;;;;;;;;6270714;28;20057;-56
2023/04/25 14:34:46;;;;;;;8.93;4.60;;;;;;;;;;6267601;28;20055;-58
2023/04/25 14:37:47;;;;;;;7.20;4.13;;;;;;;;;;6273426;28;20072;-52
2023/04/25 14:40:47;;;;;;;7.60;4.32;;;;;;;;;;6269816;28;20048;-58
2023/04/25 14:43:48;;;;;;;7.75;4.90;;;;;;;;;;6271738;28;20102;-57
2023/04/25 14:46:51;;;;;;;7.57;4.13;;;;;;;;;;6269376;28;20041;-55
2023/04/25 14:49:53;;;;;;;6.57;4.38;;;;;;;;;;6268240;28;20062;-56
2023/04/25 14:52:58;;;;;;;7.78;4.50;;;;;;;;;;6267040;28;20044;-53
2023/04/25 14:55:59;;;;;;;7.28;4.60;;;;;;;;;;6266815;28;20032;-60
2023/04/25 14:58:59;;;;;;;9.18;5.00;;;;;;;;;;6266323;28;20056;-60
2023/04/25 15:02:00;;;;;;;6.93;4.40;;;;;;;;;;6280955;28;20464;-53
2023/04/25 15:05:01;;;;;;;8.50;4.40;;;;;;;;;;6289305;28;20033;-57
2023/04/25 15:08:02;;;;;;;8.27;5.10;;;;;;;;;;6290184;28;20044;-54
2023/04/25 15:11:02;;;;;;;8.68;4.32;;;;;;;;;;6289585;28;20040;-57
2023/04/25 15:14:03;;;;;;;11.52;5.28;;;;;;;;;;6290217;28;20038;-53
2023/04/25 15:17:03;;;;;;;8.32;4.75;;;;;;;;;;6287230;28;20048;-53
2023/04/25 15:20:13;;;;;;;7.43;4.10;;;;;;;;;;6288551;28;20040;-52
2023/04/25 15:23:13;;;;;;;7.82;5.20;;;;;;;;;;6288902;28;20049;-50
2023/04/25 15:26:14;;;;;;;12.25;4.43;;;;;;;;;;6289280;28;20385;-52
2023/04/25 15:29:15;;;;;;;8.70;4.47;;;;;;;;;;6289605;28;20045;-51
2023/04/25 15:32:16;;;;;;;9.97;5.50;;;;;;;;;;6290229;28;20048;-49
2023/04/25 15:35:16;;;;;;;8.57;5.10;;;;;;;;;;6289224;28;20037;-51
2023/04/25 15:38:17;;;;;;;7.85;4.65;;;;;;;;;;6289238;28;20503;-53
2023/04/25 15:41:18;;;;;;;7.60;4.70;;;;;;;;;;6290107;28;20048;-52
2023/04/25 15:44:19;;;;;;;9.45;4.80;;;;;;;;;;6286250;28;20170;-54
2023/04/25 15:47:19;;;;;;;8.32;4.38;;;;;;;;;;6279621;28;20094;-51
2023/04/25 15:50:21;;;;;;;6.82;4.80;;;;;;;;;;6286721;28;20518;-51
2023/04/25 15:53:21;;;;;;;10.50;4.93;;;;;;;;;;6283548;28;20040;-54
2023/04/25 15:56:22;;;;;;;9.13;5.07;;;;;;;;;;6278489;28;20051;-51
2023/04/25 15:59:23;;;;;;;8.50;4.73;;;;;;;;;;6277334;28;20095;-53
2023/04/25 16:02:24;;;;;;;8.35;4.85;;;;;;;;;;6286947;28;20053;-54
2023/04/25 16:05:24;;;;;;;8.23;4.60;;;;;;;;;;6288727;28;20051;-62
2023/04/25 16:08:28;;;;;;;9.02;4.90;;;;;;;;;;6280093;28;20151;-55
2023/04/25 16:11:29;;;;;;;13.15;6.63;;;;;;;;;;6285933;28;21134;-54
2023/04/25 16:14:30;;;;;;;7.10;4.53;;;;;;;;;;6278641;28;20511;-50
2023/04/25 16:17:32;;;;;;;9.07;4.72;;;;;;;;;;6279040;28;20045;-53
2023/04/25 16:20:33;;;;;;;8.32;4.70;;;;;;;;;;6279369;28;20079;-49
2023/04/25 16:23:33;;;;;;;8.52;4.90;;;;;;;;;;6283328;28;20052;-53
2023/04/25 16:26:34;;;;;;;8.07;4.70;;;;;;;;;;6281972;28;20135;-49
2023/04/25 16:29:34;;;;;;;10.00;5.20;;;;;;;;;;6282962;28;20053;-55
2023/04/25 16:32:36;;;;;;;8.15;4.90;;;;;;;;;;6284913;28;20056;-52
2023/04/25 16:35:37;;;;;;;10.48;4.65;;;;;;;;;;6281978;28;20044;-50
2023/04/25 16:38:38;;;;;;;6.65;4.10;;;;;;;;;;6284075;28;20040;-49
2023/04/25 16:41:40;;;;;;;7.43;3.63;;;;;;;;;;6284738;28;20056;-50
2023/04/25 16:44:41;;;;;;;7.13;3.60;;;;;;;;;;6283326;28;20040;-54
2023/04/25 16:47:41;;;;;;;7.43;3.60;;;;;;;;;;6282818;28;20494;-52
2023/04/25 16:50:42;;;;;;;5.35;3.10;;;;;;;;;;6284729;28;20065;-50
2023/04/25 16:53:42;;;;;;;7.43;3.10;;;;;;;;;;6281461;28;20044;-51
2023/04/25 16:56:43;;;;;;;5.32;3.03;;;;;;;;;;6279752;28;20057;-51
2023/04/25 16:59:43;;;;;;;5.88;3.10;;;;;;;;;;6287520;28;20052;-52
2023/04/25 17:02:44;;;;;;;15.75;7.70;;;;;;;;;;6290040;28;20045;-51
2023/04/25 17:05:45;;;;;;;9.65;3.85;;;;;;;;;;6280440;28;20048;-53
2023/04/25 17:08:46;;;;;;;9.65;5.32;;;;;;;;;;6286403;28;20105;-52
2023/04/25 17:11:46;;;;;;;9.20;3.75;;;;;;;;;;6288389;28;20395;-55
2023/04/25 17:14:48;;;;;;;6.90;3.97;;;;;;;;;;6290923;28;20044;-59
2023/04/25 17:17:49;;;;;;;9.13;3.20;;;;;;;;;;6289217;28;20076;-54
2023/04/25 17:20:49;;;;;;;6.93;3.05;;;;;;;;;;6282610;28;20142;-55
2023/04/25 17:23:50;;;;;;;7.93;3.00;;;;;;;;;;6288364;28;20494;-56
2023/04/25 17:26:50;;;;;;;8.75;3.42;;;;;;;;;;6291346;28;20602;-54
2023/04/25 17:29:51;;;;;;;5.72;2.95;;;;;;;;;;6285079;28;20041;-52
2023/04/25 17:32:52;;;;;;;5.85;2.80;;;;;;;;;;6287268;28;20053;-54
2023/04/25 17:35:53;;;;;;;8.88;3.35;;;;;;;;;;6283483;28;20056;-54
2023/04/25 17:38:53;;;;;;;4.25;2.60;;;;;;;;;;6284538;28;20049;-55
2023/04/25 17:41:54;;;;;;;7.55;3.97;;;;;;;;;;6288632;28;20097;-54
2023/04/25 17:44:55;;;;;;;6.55;2.67;;;;;;;;;;6286582;28;20049;-55
2023/04/25 17:47:55;;;;;;;6.03;2.70;;;;;;;;;;6283827;28;20043;-58
2023/04/25 17:50:57;;;;;;;5.95;3.00;;;;;;;;;;6287231;28;20590;-53
2023/04/25 17:53:57;;;;;;;7.03;3.10;;;;;;;;;;6286153;28;20050;-55
2023/04/25 17:56:58;;;;;;;7.00;3.55;;;;;;;;;;6279944;28;20056;-56
2023/04/25 17:59:58;;;;;;;10.82;4.47;;;;;;;;;;6292027;28;20052;-54